Terminal Aerodrome Forecast
Issued by NWS

Home | Current Version | Previous Version | Text Only | Print | Product List | Glossary On
Versions: 1 2 3 4 5 6 7 8 9 10 11 12 13 14 15 16 17 18 19 20
000
FTUS41 KOKX 020535
TAFHPN
TAF
KHPN 020535Z 0206/0306 VRB02KT 1/2SM -DZ FG VV002
     FM021400 09004KT 1 1/2SM -RA BR OVC004
     FM021700 14004KT 4SM BR OVC004
     FM021900 VRB04KT 6SM BR BKN009
     FM030200 VRB03KT 3SM BR OVC005
      AMD NOT SKED=

USA.gov is the U.S. government's official web portal to all federal, state and local government web resources and services.